Time;durP1;ratioP1;P1;durP2;ratioP2;P2;SDS_P1;SDS_P2;PMS_P1;PMS_P2;Temp;Humidity;BMP_temperature;BMP_pressure;BME280_temperature;BME280_humidity;BME280_pressure;Samples;Min_cycle;Max_cycle;Signal;HPM_P1;HPM_P2
2023/04/08 00:02:18;;;;;;;0.17;0.17;;;;;;;11.62;67.32;102385.50;5109044;28;20024;-84
2023/04/08 00:04:44;;;;;;;4.18;0.73;;;;;;;11.60;67.46;102387.28;5108692;28;20027;-81
2023/04/08 00:07:10;;;;;;;1.35;0.52;;;;;;;11.55;68.13;102386.41;5101591;28;20024;-84
2023/04/08 00:09:37;;;;;;;0.43;0.43;;;;;;;11.55;67.81;102386.41;5086599;28;20048;-84
2023/04/08 00:12:04;;;;;;;0.10;0.10;;;;;;;11.53;68.14;102385.50;5104023;28;20020;-82
2023/04/08 00:14:30;;;;;;;0.95;0.95;;;;;;;11.49;68.21;102384.63;5104417;28;20028;-82
2023/04/08 00:16:56;;;;;;;0.32;0.32;;;;;;;11.48;68.11;102382.84;5105664;28;20561;-84
2023/04/08 00:19:22;;;;;;;0.10;0.10;;;;;;;11.47;67.90;102386.38;5105862;28;20062;-84
2023/04/08 00:21:49;;;;;;;2.30;1.98;;;;;;;11.48;67.68;102381.97;5106586;28;20039;-83
2023/04/08 00:24:15;;;;;;;1.23;1.23;;;;;;;11.48;68.70;102389.94;5105802;28;20059;-84
2023/04/08 00:26:41;;;;;;;0.10;0.10;;;;;;;11.45;68.63;102387.25;5106019;28;20162;-82
2023/04/08 00:29:07;;;;;;;0.73;0.45;;;;;;;11.45;68.58;102384.59;5104005;28;20032;-81
2023/04/08 00:31:33;;;;;;;0.10;0.10;;;;;;;11.43;68.77;102384.63;5104732;28;20028;-83
2023/04/08 00:34:00;;;;;;;0.85;0.77;;;;;;;11.43;68.85;102389.06;5103068;28;20517;-82
2023/04/08 00:36:26;;;;;;;0.30;0.30;;;;;;;11.43;68.76;102394.34;5104665;28;20036;-82
2023/04/08 00:38:52;;;;;;;0.13;0.13;;;;;;;11.43;68.22;102386.41;5103885;28;20028;-83
2023/04/08 00:41:18;;;;;;;0.10;0.10;;;;;;;11.43;68.68;102389.06;5104246;28;20016;-83
2023/04/08 00:43:45;;;;;;;0.20;0.20;;;;;;;11.42;68.34;102393.47;5104691;28;20024;-83
2023/04/08 00:46:11;;;;;;;0.10;0.10;;;;;;;11.42;68.51;102390.81;5104395;28;20028;-80
2023/04/08 00:48:37;;;;;;;0.10;0.10;;;;;;;11.42;68.56;102393.47;5090567;28;20388;-83
2023/04/08 00:51:03;;;;;;;0.10;0.10;;;;;;;11.38;69.41;102393.47;5104035;28;20057;-83
2023/04/08 00:53:31;;;;;;;0.05;0.05;;;;;;;11.35;68.98;102386.38;5103833;28;20088;-82
2023/04/08 00:55:58;;;;;;;1.08;1.00;;;;;;;11.35;69.36;102388.16;5103589;28;20036;-83
2023/04/08 00:58:24;;;;;;;0.10;0.10;;;;;;;11.34;69.51;102387.28;5102283;28;20084;-81
2023/04/08 01:01:05;;;;;;;0.38;0.38;;;;;;;11.39;69.56;102389.91;5103109;28;20060;-80
2023/04/08 01:04:00;;;;;;;0.10;0.10;;;;;;;11.43;68.83;102394.34;5104116;28;20058;-82
2023/04/08 01:09:11;;;;;;;0.20;0.20;;;;;;;11.41;69.23;102396.13;5079925;28;20371;-82
2023/04/08 01:11:42;;;;;;;0.30;0.28;;;;;;;11.41;69.40;102397.00;5079800;28;20417;-82
2023/04/08 01:14:13;;;;;;;0.10;0.10;;;;;;;11.39;69.53;102397.88;5080445;28;20021;-80
2023/04/08 01:16:41;;;;;;;0.10;0.10;;;;;;;11.39;69.09;102396.13;5065210;28;20029;-81
2023/04/08 01:19:09;;;;;;;0.10;0.10;;;;;;;11.39;69.62;102396.13;5073032;28;20036;-81
2023/04/08 01:21:37;;;;;;;0.10;0.10;;;;;;;11.41;69.44;102402.28;5072404;28;20036;-80
2023/04/08 01:24:15;;;;;;;0.22;0.22;;;;;;;11.46;69.36;102407.63;5064845;28;20031;-82
2023/04/08 01:26:42;;;;;;;0.30;0.30;;;;;;;11.43;69.56;102399.66;5068105;28;20032;-82
2023/04/08 01:29:11;;;;;;;0.10;0.10;;;;;;;11.43;69.22;102399.66;5080236;28;20044;-79
2023/04/08 01:31:40;;;;;;;0.32;0.32;;;;;;;11.43;69.23;102399.66;5083294;28;20036;-81
2023/04/08 01:34:08;;;;;;;0.10;0.10;;;;;;;11.44;69.31;102396.09;5082262;28;20025;-81
2023/04/08 01:36:36;;;;;;;0.20;0.20;;;;;;;11.41;70.79;102398.78;5083066;28;20029;-82
2023/04/08 01:39:04;;;;;;;0.20;0.20;;;;;;;11.43;70.06;102394.34;5081361;28;20024;-82
2023/04/08 01:41:33;;;;;;;0.35;0.35;;;;;;;11.43;69.84;102397.00;5074020;28;20101;-79
2023/04/08 01:43:59;;;;;;;0.20;0.20;;;;;;;11.42;69.65;102398.75;5077668;28;20028;-81
2023/04/08 01:46:27;;;;;;;0.20;0.20;;;;;;;11.39;69.98;102396.13;5083178;28;20029;-82
2023/04/08 01:48:54;;;;;;;0.10;0.10;;;;;;;11.39;69.47;102397.88;5080432;28;20394;-81
2023/04/08 01:51:21;;;;;;;0.10;0.10;;;;;;;11.39;69.12;102405.84;5080184;28;20756;-81
2023/04/08 01:53:47;;;;;;;0.10;0.10;;;;;;;11.39;69.85;102411.13;5069826;28;20020;-82
2023/04/08 01:56:15;;;;;;;0.10;0.10;;;;;;;11.38;69.65;102404.09;5081332;28;20035;-80
2023/04/08 01:58:45;;;;;;;0.10;0.10;;;;;;;11.39;69.13;102413.78;5073767;28;20391;-80
2023/04/08 02:01:16;;;;;;;0.10;0.10;;;;;;;11.38;69.10;102406.75;5074017;28;20029;-80
2023/04/08 02:03:44;;;;;;;0.10;0.10;;;;;;;11.36;69.77;102414.69;5067794;28;20071;-82
2023/04/08 02:06:10;;;;;;;0.03;0.03;;;;;;;11.35;69.43;102410.25;5081108;28;20029;-82
2023/04/08 02:08:36;;;;;;;0.10;0.10;;;;;;;11.32;69.32;102411.13;5066822;28;20020;-82
2023/04/08 02:11:03;;;;;;;0.20;0.20;;;;;;;11.29;69.40;102408.47;5080632;28;20039;-81
2023/04/08 02:13:31;;;;;;;3.58;0.60;;;;;;;11.27;69.78;102410.25;5080685;28;20397;-81
2023/04/08 02:16:20;;;;;;;0.10;0.10;;;;;;;11.26;68.89;102413.78;5073545;28;20021;-83
2023/04/08 02:18:55;;;;;;;0.57;0.57;;;;;;;11.24;69.50;102419.94;5073442;28;20024;-82
2023/04/08 02:21:26;;;;;;;0.10;0.10;;;;;;;11.16;69.47;102406.69;5056329;28;20017;-82
2023/04/08 02:23:54;;;;;;;0.10;0.10;;;;;;;11.11;69.47;102413.75;5050043;28;20025;-82
2023/04/08 02:26:21;;;;;;;0.10;0.10;;;;;;;11.02;69.43;102414.59;5043612;28;20032;-83
2023/04/08 02:28:49;;;;;;;0.10;0.10;;;;;;;10.96;69.44;102417.22;5044850;28;20030;-81
2023/04/08 02:31:17;;;;;;;0.30;0.30;;;;;;;10.90;69.15;102420.72;5040241;28;20030;-81
2023/04/08 02:33:44;;;;;;;0.40;0.40;;;;;;;10.84;69.22;102418.06;5042714;28;20502;-80
2023/04/08 02:36:13;;;;;;;2.92;0.90;;;;;;;10.77;69.38;102417.16;5049527;28;20014;-81
2023/04/08 02:38:39;;;;;;;0.10;0.10;;;;;;;10.70;69.64;102423.28;5054468;28;20053;-80
2023/04/08 02:41:05;;;;;;;0.50;0.50;;;;;;;10.66;69.29;102430.34;5054644;28;20515;-81
2023/04/08 02:43:31;;;;;;;0.98;0.95;;;;;;;10.60;69.74;102435.59;5055763;28;20037;-81
2023/04/08 02:45:59;;;;;;;2.47;0.63;;;;;;;10.60;69.92;102427.66;5052087;28;20025;-82
2023/04/08 02:48:25;;;;;;;0.10;0.10;;;;;;;10.61;69.86;102429.44;5051579;28;20074;-82
2023/04/08 02:50:51;;;;;;;0.10;0.10;;;;;;;10.60;69.81;102438.25;5054085;28;20044;-81
2023/04/08 02:53:17;;;;;;;0.10;0.10;;;;;;;10.59;69.74;102431.22;5053369;28;20034;-81
2023/04/08 02:55:44;;;;;;;0.57;0.57;;;;;;;10.56;69.87;102436.47;5047396;28;20097;-81
2023/04/08 02:58:10;;;;;;;0.20;0.20;;;;;;;10.62;69.62;102435.66;5040127;28;20021;-80
2023/04/08 03:00:38;;;;;;;0.10;0.10;;;;;;;10.57;69.92;102437.38;5028427;28;20051;-81
2023/04/08 03:03:05;;;;;;;0.20;0.20;;;;;;;10.58;70.07;102433.84;5042010;28;20049;-81
2023/04/08 03:05:31;;;;;;;0.20;0.20;;;;;;;10.60;69.85;102434.75;5040449;28;20029;-83
2023/04/08 03:07:58;;;;;;;0.10;0.10;;;;;;;10.62;69.64;102441.81;5046537;28;20040;-84
2023/04/08 03:10:24;;;;;;;0.10;0.10;;;;;;;10.60;70.36;102437.38;5047980;28;20214;-82
2023/04/08 03:12:50;;;;;;;0.22;0.22;;;;;;;10.62;69.63;102439.16;5047648;28;20029;-80
2023/04/08 03:15:16;;;;;;;0.60;0.60;;;;;;;10.64;70.07;102441.81;5046983;28;20029;-81
2023/04/08 03:17:42;;;;;;;0.10;0.10;;;;;;;10.63;69.67;102437.38;5045888;28;20025;-80
2023/04/08 03:20:09;;;;;;;0.68;0.68;;;;;;;10.63;70.14;102440.94;5045363;28;20033;-81
2023/04/08 03:22:36;;;;;;;0.10;0.10;;;;;;;10.63;69.73;102446.25;5047443;28;20035;-82
2023/04/08 03:25:03;;;;;;;0.10;0.10;;;;;;;10.59;70.29;102446.22;5046947;28;20091;-83
2023/04/08 03:27:29;;;;;;;0.10;0.10;;;;;;;10.59;70.14;102452.41;5046479;28;20454;-83
2023/04/08 03:29:56;;;;;;;0.13;0.13;;;;;;;10.58;70.04;102440.03;5045660;28;20029;-83
2023/04/08 03:32:22;;;;;;;0.40;0.40;;;;;;;10.52;69.91;102440.88;5044093;28;20029;-81
2023/04/08 03:34:50;;;;;;;0.10;0.10;;;;;;;10.48;70.19;102440.84;5047326;28;20037;-81
2023/04/08 03:37:17;;;;;;;0.10;0.10;;;;;;;10.45;70.25;102448.78;5045375;28;20124;-82
2023/04/08 03:39:43;;;;;;;0.10;0.10;;;;;;;10.44;70.71;102447.00;5044526;28;20036;-81
2023/04/08 03:42:09;;;;;;;0.15;0.15;;;;;;;10.44;70.22;102452.31;5039926;28;20491;-81
2023/04/08 03:44:35;;;;;;;0.10;0.10;;;;;;;10.47;69.84;102458.50;5032985;28;20044;-81
2023/04/08 03:47:01;;;;;;;4.95;1.73;;;;;;;10.45;70.09;102454.09;5030672;28;20049;-82
2023/04/08 03:49:27;;;;;;;0.20;0.20;;;;;;;10.43;70.00;102461.13;5046994;28;20410;-81
2023/04/08 03:51:53;;;;;;;0.20;0.20;;;;;;;10.40;70.45;102471.72;5032770;28;20025;-82
2023/04/08 03:54:19;;;;;;;0.15;0.15;;;;;;;10.40;70.09;102474.38;5047895;28;20033;-83
2023/04/08 03:56:46;;;;;;;0.10;0.10;;;;;;;10.38;70.11;102469.06;5046306;28;20033;-83
2023/04/08 03:59:12;;;;;;;0.10;0.10;;;;;;;10.39;70.38;102468.16;5045389;28;20034;-82
2023/04/08 04:01:38;;;;;;;1.25;1.00;;;;;;;10.39;70.53;102470.81;5047870;28;20033;-82
2023/04/08 04:04:04;;;;;;;1.77;0.85;;;;;;;10.42;70.41;102472.59;5045828;28;20040;-82
2023/04/08 04:06:30;;;;;;;0.10;0.10;;;;;;;10.43;70.61;102474.38;5044532;28;20126;-82
2023/04/08 04:08:56;;;;;;;0.10;0.10;;;;;;;10.44;70.32;102473.50;5044044;28;20029;-82
2023/04/08 04:11:22;;;;;;;0.10;0.10;;;;;;;10.42;70.26;102469.94;5043369;28;20102;-82
2023/04/08 04:13:48;;;;;;;0.10;0.10;;;;;;;10.43;70.15;102474.38;5044066;28;20127;-82
2023/04/08 04:16:14;;;;;;;0.10;0.10;;;;;;;10.41;69.83;102473.50;5030033;28;20029;-83
2023/04/08 04:18:40;;;;;;;0.43;0.43;;;;;;;10.39;70.29;102484.06;5044851;28;20040;-81
2023/04/08 04:21:07;;;;;;;0.10;0.10;;;;;;;10.47;69.76;102485.00;5044623;28;20025;-83
2023/04/08 04:23:33;;;;;;;0.10;0.10;;;;;;;10.42;70.08;102483.19;5045111;28;20034;-81
2023/04/08 04:25:59;;;;;;;0.10;0.10;;;;;;;10.40;70.19;102487.63;5045307;28;20037;-81
2023/04/08 04:28:25;;;;;;;0.10;0.10;;;;;;;10.38;70.36;102489.34;5043785;28;20602;-81
2023/04/08 04:30:51;;;;;;;0.10;0.10;;;;;;;10.35;70.47;102495.50;5045541;28;20056;-80
2023/04/08 04:33:17;;;;;;;0.50;0.50;;;;;;;10.33;70.02;102498.13;5044133;28;20033;-81
2023/04/08 04:35:43;;;;;;;0.10;0.10;;;;;;;10.32;70.11;102501.66;5044216;28;20021;-81
2023/04/08 04:38:12;;;;;;;0.20;0.20;;;;;;;10.31;70.21;102499.88;5044353;28;20428;-81
2023/04/08 04:40:38;;;;;;;0.10;0.10;;;;;;;10.28;70.13;102499.88;5044641;28;20025;-83
2023/04/08 04:43:05;;;;;;;0.10;0.10;;;;;;;10.22;69.98;102499.81;5044708;28;20029;-82
2023/04/08 04:45:31;;;;;;;0.10;0.10;;;;;;;10.20;70.09;102504.22;5043605;28;20029;-81
2023/04/08 04:47:57;;;;;;;0.20;0.20;;;;;;;10.17;69.98;102513.00;5041888;28;20037;-83
2023/04/08 04:50:23;;;;;;;0.20;0.20;;;;;;;10.18;70.16;102519.19;5043527;28;20033;-82
2023/04/08 04:52:49;;;;;;;2.83;0.65;;;;;;;10.19;70.13;102515.66;5044499;28;20025;-83
2023/04/08 04:55:15;;;;;;;0.10;0.10;;;;;;;10.17;70.19;102520.97;5043566;28;20052;-81
2023/04/08 04:57:43;;;;;;;0.10;0.10;;;;;;;10.14;70.48;102517.41;5042720;28;20048;-81
2023/04/08 05:00:09;;;;;;;0.22;0.22;;;;;;;10.11;70.46;102517.38;5031097;28;20075;-82
2023/04/08 05:02:36;;;;;;;0.10;0.10;;;;;;;10.09;70.37;102520.00;5040975;28;20059;-81
2023/04/08 05:05:02;;;;;;;0.10;0.10;;;;;;;10.10;70.39;102523.56;5043517;28;20026;-81
2023/04/08 05:07:28;;;;;;;1.10;1.10;;;;;;;10.09;70.47;102516.47;5044340;28;20035;-83
2023/04/08 05:09:54;;;;;;;0.10;0.10;;;;;;;10.10;70.30;102518.25;5043278;28;20037;-83
2023/04/08 05:12:20;;;;;;;0.20;0.20;;;;;;;10.10;70.36;102521.78;5043059;28;20399;-80
2023/04/08 05:14:46;;;;;;;0.13;0.13;;;;;;;10.09;70.58;102527.06;5042166;28;20491;-81
2023/04/08 05:17:12;;;;;;;0.10;0.10;;;;;;;10.10;70.33;102523.56;5041441;28;20041;-82
2023/04/08 05:19:39;;;;;;;0.00;0.00;;;;;;;10.09;70.42;102525.28;5040898;28;20026;-81
2023/04/08 05:22:05;;;;;;;0.10;0.10;;;;;;;10.09;70.45;102530.59;5042752;28;20029;-81
2023/04/08 05:24:31;;;;;;;0.10;0.10;;;;;;;10.11;70.27;102533.28;5046237;28;20026;-82
2023/04/08 05:26:57;;;;;;;0.10;0.10;;;;;;;10.10;70.65;102537.66;5044074;28;20048;-84
2023/04/08 05:29:23;;;;;;;1.15;1.10;;;;;;;10.12;70.34;102535.03;5029993;28;20044;-82
2023/04/08 05:31:49;;;;;;;0.10;0.10;;;;;;;10.11;70.58;102538.56;5043551;28;20036;-81
2023/04/08 05:34:21;;;;;;;0.10;0.10;;;;;;;10.10;70.45;102542.09;5045345;28;20026;-82
2023/04/08 05:36:50;;;;;;;0.10;0.10;;;;;;;10.09;70.61;102537.66;5043250;28;20021;-80
2023/04/08 05:39:17;;;;;;;0.30;0.30;;;;;;;10.09;70.54;102546.47;5042756;28;20037;-81
2023/04/08 05:41:43;;;;;;;0.52;0.52;;;;;;;10.18;70.09;102545.69;5042960;28;20116;-81
2023/04/08 05:44:10;;;;;;;0.13;0.13;;;;;;;10.17;70.62;102549.22;5042189;28;20403;-82
2023/04/08 05:46:37;;;;;;;0.10;0.10;;;;;;;10.18;70.30;102545.69;5042986;28;20033;-83
2023/04/08 05:49:03;;;;;;;0.75;0.68;;;;;;;10.18;70.76;102556.28;5041863;28;20112;-82
2023/04/08 05:51:29;;;;;;;0.10;0.10;;;;;;;10.19;70.91;102558.06;5042731;28;20041;-82
2023/04/08 05:53:55;;;;;;;0.10;0.10;;;;;;;10.20;70.88;102559.84;5042496;28;20029;-83
2023/04/08 05:56:21;;;;;;;1.88;0.50;;;;;;;10.19;70.67;102561.59;5045187;28;20044;-82
2023/04/08 05:58:48;;;;;;;0.10;0.10;;;;;;;10.22;70.65;102558.09;5044980;28;20026;-81
2023/04/08 06:01:14;;;;;;;0.10;0.10;;;;;;;10.25;70.92;102567.84;5046198;28;20509;-82
2023/04/08 06:03:40;;;;;;;0.10;0.10;;;;;;;10.29;70.88;102559.03;5046308;28;20041;-82
2023/04/08 06:06:10;;;;;;;0.10;0.10;;;;;;;10.33;71.00;102567.03;5042089;28;20064;-82
2023/04/08 06:08:36;;;;;;;0.20;0.20;;;;;;;10.35;71.06;102565.28;5027121;28;20044;-82
2023/04/08 06:11:04;;;;;;;0.20;0.20;;;;;;;10.36;70.74;102567.06;5043714;28;20139;-80
2023/04/08 06:13:30;;;;;;;0.10;0.10;;;;;;;10.39;70.67;102570.63;5045215;28;20065;-82
2023/04/08 06:15:56;;;;;;;0.28;0.28;;;;;;;10.43;70.41;102572.41;5044783;28;20025;-83
2023/04/08 06:18:22;;;;;;;0.20;0.20;;;;;;;10.46;70.55;102572.47;5044596;28;20026;-83
2023/04/08 06:20:49;;;;;;;0.10;0.10;;;;;;;10.51;70.74;102583.97;5046373;28;20026;-83
2023/04/08 06:23:15;;;;;;;1.10;0.47;;;;;;;10.55;70.51;102577.81;5044746;28;20152;-81
2023/04/08 06:25:42;;;;;;;0.40;0.40;;;;;;;10.61;70.46;102582.31;5033660;28;20395;-83
2023/04/08 06:28:08;;;;;;;0.35;0.35;;;;;;;10.66;70.82;102596.47;5030557;28;20017;-83
2023/04/08 06:30:34;;;;;;;0.10;0.10;;;;;;;10.69;70.48;102585.88;5041511;28;20045;-83
2023/04/08 06:33:00;;;;;;;0.10;0.10;;;;;;;10.75;70.74;102596.53;5042753;28;20025;-83
2023/04/08 06:35:26;;;;;;;0.10;0.10;;;;;;;10.79;70.30;102601.00;5035578;28;20025;-83
2023/04/08 06:37:52;;;;;;;0.10;0.10;;;;;;;10.79;70.40;102602.75;5031957;28;20026;-82
2023/04/08 06:40:18;;;;;;;0.20;0.20;;;;;;;10.79;70.71;102608.03;5031077;28;20040;-83
2023/04/08 06:42:51;;;;;;;0.10;0.10;;;;;;;10.81;70.57;102603.66;5025483;28;20026;-82
2023/04/08 06:45:17;;;;;;;0.10;0.10;;;;;;;10.78;70.12;102606.25;5039919;28;20285;-83
2023/04/08 06:47:43;;;;;;;0.10;0.10;;;;;;;10.77;70.07;102615.13;5038747;28;20522;-82
2023/04/08 06:50:10;;;;;;;0.47;0.47;;;;;;;10.78;70.12;102612.47;5037606;28;20108;-82
2023/04/08 06:52:36;;;;;;;0.10;0.10;;;;;;;10.83;70.45;102615.16;5039831;28;20025;-83
2023/04/08 06:55:02;;;;;;;0.10;0.10;;;;;;;10.84;70.79;102619.56;5033071;28;20065;-81
2023/04/08 06:57:28;;;;;;;0.13;0.13;;;;;;;10.92;70.54;102623.19;5037886;28;20117;-81
2023/04/08 06:59:55;;;;;;;0.20;0.20;;;;;;;10.96;70.71;102624.09;5028333;28;20037;-81
2023/04/08 07:02:21;;;;;;;0.60;0.60;;;;;;;11.02;70.66;102623.25;5037279;28;20057;-80
2023/04/08 07:04:47;;;;;;;0.10;0.10;;;;;;;11.07;70.57;102629.47;5027861;28;20021;-81
2023/04/08 07:07:14;;;;;;;2.28;0.75;;;;;;;11.11;70.48;102631.25;5037980;28;20025;-80
2023/04/08 07:09:42;;;;;;;0.10;0.10;;;;;;;11.09;70.48;102625.97;5021621;28;20439;-81
2023/04/08 07:12:08;;;;;;;0.10;0.10;;;;;;;11.10;70.17;102638.34;5019590;28;20021;-78
2023/04/08 07:14:34;;;;;;;0.57;0.57;;;;;;;11.15;70.48;102643.66;5030938;28;20503;-80
2023/04/08 07:17:00;;;;;;;0.10;0.10;;;;;;;11.18;70.49;102649.00;5024277;28;20044;-78
2023/04/08 07:19:26;;;;;;;0.10;0.10;;;;;;;11.24;70.24;102645.47;5026514;28;20033;-79
2023/04/08 07:21:52;;;;;;;1.65;1.55;;;;;;;11.28;70.12;102644.66;5031798;28;20025;-80
2023/04/08 07:24:18;;;;;;;0.20;0.20;;;;;;;11.33;70.16;102643.78;5030716;28;20104;-80
2023/04/08 07:26:44;;;;;;;0.20;0.20;;;;;;;11.36;69.98;102650.88;5024583;28;20491;-81
2023/04/08 07:29:10;;;;;;;0.10;0.10;;;;;;;11.44;69.84;102650.91;5021276;28;20089;-81
2023/04/08 07:31:37;;;;;;;0.40;0.40;;;;;;;11.43;69.82;102654.47;5025504;28;20037;-81
2023/04/08 07:34:03;;;;;;;0.10;0.10;;;;;;;11.47;69.59;102661.56;5037846;28;20052;-83
2023/04/08 07:36:29;;;;;;;0.10;0.10;;;;;;;11.47;70.21;102651.81;5042229;28;20030;-81
2023/04/08 07:38:55;;;;;;;0.20;0.20;;;;;;;11.49;69.78;102657.16;5029710;28;20013;-81
2023/04/08 07:41:21;;;;;;;0.10;0.10;;;;;;;11.53;69.70;102661.59;5038644;28;20513;-83
2023/04/08 07:43:47;;;;;;;0.10;0.10;;;;;;;11.60;69.73;102660.75;5032790;28;20024;-81
2023/04/08 07:46:13;;;;;;;0.17;0.17;;;;;;;11.68;69.98;102662.56;5028002;28;20057;-81
2023/04/08 07:48:40;;;;;;;1.35;1.20;;;;;;;11.72;69.58;102661.69;5034634;28;20025;-82
2023/04/08 07:51:08;;;;;;;0.82;0.82;;;;;;;11.74;69.69;102666.13;5039185;28;20495;-81
2023/04/08 07:53:34;;;;;;;0.10;0.10;;;;;;;11.76;69.24;102669.66;5039031;28;20070;-80
2023/04/08 07:56:03;;;;;;;0.10;0.10;;;;;;;11.81;69.50;102662.59;5038233;28;20040;-80
2023/04/08 07:58:30;;;;;;;0.15;0.15;;;;;;;11.86;69.02;102670.56;5036212;28;20081;-81
2023/04/08 08:00:57;;;;;;;0.57;0.57;;;;;;;11.88;69.20;102674.13;5036115;28;20048;-80
2023/04/08 08:03:24;;;;;;;0.10;0.10;;;;;;;11.88;69.27;102668.81;5034389;28;20032;-82
2023/04/08 08:05:50;;;;;;;0.20;0.20;;;;;;;11.82;68.70;102675.00;5030884;28;20048;-83
2023/04/08 08:08:16;;;;;;;0.15;0.15;;;;;;;11.81;68.48;102680.28;5031717;28;20026;-82
2023/04/08 08:10:42;;;;;;;0.30;0.30;;;;;;;11.86;68.76;102675.88;5032259;28;20053;-83
2023/04/08 08:13:08;;;;;;;0.30;0.30;;;;;;;11.87;68.75;102675.00;5022676;28;20060;-81
2023/04/08 08:15:34;;;;;;;0.40;0.40;;;;;;;11.90;68.25;102688.31;5029215;28;20037;-81
2023/04/08 08:18:00;;;;;;;0.63;0.52;;;;;;;11.96;67.98;102693.69;5041346;28;20034;-80
2023/04/08 08:20:26;;;;;;;0.17;0.17;;;;;;;11.97;68.56;102690.16;5029680;28;20041;-84
2023/04/08 08:22:52;;;;;;;0.90;0.90;;;;;;;11.91;67.24;102684.78;5025389;28;20034;-80
2023/04/08 08:25:19;;;;;;;0.95;0.95;;;;;;;11.95;67.38;102694.53;5024010;28;20033;-80
2023/04/08 08:27:45;;;;;;;0.73;0.73;;;;;;;11.95;67.38;102691.88;5023605;28;20395;-82
2023/04/08 08:30:11;;;;;;;0.40;0.40;;;;;;;12.04;67.81;102700.81;5026574;28;20132;-83
2023/04/08 08:32:37;;;;;;;0.10;0.10;;;;;;;12.10;68.31;102700.78;5027410;28;20025;-83
2023/04/08 08:35:08;;;;;;;0.75;0.75;;;;;;;12.07;66.66;102708.78;5030633;28;20034;-84
2023/04/08 08:37:37;;;;;;;0.20;0.20;;;;;;;11.93;65.66;102700.72;5028853;28;20029;-84
2023/04/08 08:40:07;;;;;;;0.10;0.10;;;;;;;12.03;67.12;102701.69;5018390;28;20414;-81
2023/04/08 08:42:33;;;;;;;0.40;0.40;;;;;;;12.00;66.35;102702.56;5037278;28;20060;-82
2023/04/08 08:45:31;;;;;;;0.30;0.30;;;;;;;12.04;66.26;102706.13;5034055;28;20490;-83
2023/04/08 08:48:13;;;;;;;0.15;0.15;;;;;;;12.10;65.78;102711.44;5019952;28;20036;-82
2023/04/08 08:50:42;;;;;;;0.10;0.10;;;;;;;12.16;65.90;102711.44;5051913;23;20046;-82
2023/04/08 08:53:08;;;;;;;0.65;0.65;;;;;;;12.20;65.57;102715.00;4994628;28;20030;-82
2023/04/08 08:55:35;;;;;;;0.10;0.10;;;;;;;12.30;67.45;102714.19;4994295;28;20026;-82
2023/04/08 08:58:01;;;;;;;2.20;0.95;;;;;;;12.32;66.09;102714.16;4989816;28;20090;-82
2023/04/08 09:00:32;;;;;;;0.10;0.10;;;;;;;12.39;65.72;102703.56;4989989;28;20034;-82
2023/04/08 09:11:22;;;;;;;0.17;0.17;;;;;;;12.76;65.75;102714.25;5109337;27;1184634;-82
2023/04/08 09:13:48;;;;;;;0.43;0.43;;;;;;;12.87;65.79;102722.25;5125420;28;20482;-83
2023/04/08 09:16:18;;;;;;;0.10;0.10;;;;;;;12.92;63.24;102711.59;5132776;27;20051;-83
2023/04/08 09:18:47;;;;;;;0.10;0.10;;;;;;;13.01;64.78;102708.94;5130197;27;20024;-83
2023/04/08 09:21:15;;;;;;;1.77;0.40;;;;;;;13.09;65.07;102708.94;5115032;28;20103;-83
2023/04/08 09:23:44;;;;;;;1.92;1.83;;;;;;;13.04;63.71;102706.25;5114302;28;20085;-80
2023/04/08 09:26:15;;;;;;;0.10;0.10;;;;;;;13.07;64.33;102700.06;5122905;28;20023;-81
2023/04/08 09:28:42;;;;;;;0.17;0.17;;;;;;;13.06;64.52;102709.81;5123484;28;20034;-82
2023/04/08 09:31:26;;;;;;;0.10;0.10;;;;;;;13.17;63.97;102708.91;5122926;28;20503;-81
2023/04/08 09:33:55;;;;;;;0.15;0.15;;;;;;;13.06;64.30;102707.16;5107656;28;20024;-81
2023/04/08 09:36:22;;;;;;;0.50;0.47;;;;;;;13.05;63.84;102709.84;5114983;28;20617;-84
2023/04/08 09:38:48;;;;;;;0.10;0.10;;;;;;;13.05;64.29;102708.03;5113299;28;20429;-83
2023/04/08 09:41:42;;;;;;;0.35;0.35;;;;;;;13.05;64.08;102705.38;5112354;28;20039;-82
2023/04/08 09:44:10;;;;;;;0.45;0.45;;;;;;;13.10;64.32;102719.56;5107169;28;20036;-84
2023/04/08 09:49:46;;;;;;;1.17;1.17;;;;;;;13.16;63.55;102718.69;5113088;27;20409;-84
2023/04/08 09:52:49;;;;;;;0.20;0.20;;;;;;;13.28;63.54;102712.44;5112141;28;20031;-83
2023/04/08 09:55:25;;;;;;;0.35;0.35;;;;;;;13.27;63.45;102716.91;5112638;28;20039;-83
2023/04/08 09:58:24;;;;;;;3.13;1.67;;;;;;;13.36;63.62;102715.13;5112902;28;20029;-83
2023/04/08 10:01:11;;;;;;;2.13;0.65;;;;;;;13.47;63.52;102713.38;5113116;28;20032;-82
2023/04/08 10:07:24;;;;;;;0.30;0.30;;;;;;;13.63;62.74;102705.31;5068804;28;20626;-83
2023/04/08 10:09:50;;;;;;;0.47;0.47;;;;;;;13.67;62.50;102707.06;5100094;28;20404;-83
2023/04/08 10:12:16;;;;;;;1.08;1.08;;;;;;;13.75;63.21;102702.63;5112455;28;20039;-83
2023/04/08 10:15:25;;;;;;;0.20;0.20;;;;;;;13.95;63.02;102704.31;5113050;28;20039;-80
2023/04/08 10:18:19;;;;;;;0.43;0.43;;;;;;;14.04;62.90;102706.94;5111533;28;20026;-83
2023/04/08 10:20:46;;;;;;;1.50;1.40;;;;;;;14.16;60.92;102704.22;5112345;28;20049;-82
2023/04/08 10:23:15;;;;;;;2.40;0.45;;;;;;;14.23;60.45;102700.63;5112640;28;20035;-83
2023/04/08 10:30:56;;;;;;;0.25;0.25;;;;;;;14.59;59.25;102702.19;5113074;27;20129;-82
2023/04/08 10:33:30;;;;;;;0.25;0.25;;;;;;;14.67;59.09;102703.06;5112225;28;20099;-85
2023/04/08 10:38:41;;;;;;;0.13;0.13;;;;;;;14.84;55.41;102701.13;5108766;27;20381;-85
2023/04/08 10:41:20;;;;;;;0.20;0.20;;;;;;;14.97;55.62;102687.69;5095728;28;20032;-82
2023/04/08 10:43:46;;;;;;;0.35;0.35;;;;;;;15.04;55.37;102684.94;5092486;28;20024;-82
2023/04/08 10:46:13;;;;;;;0.90;0.90;;;;;;;15.16;56.17;102694.59;5092525;28;20024;-85
2023/04/08 10:48:39;;;;;;;0.25;0.25;;;;;;;15.19;53.91;102691.94;5091582;28;20668;-84
2023/04/08 10:51:55;;;;;;;0.90;0.90;;;;;;;15.28;55.22;102695.41;5094017;28;20063;-82
2023/04/08 10:54:22;;;;;;;0.73;0.73;;;;;;;15.40;53.04;102692.59;5079675;28;20555;-83
2023/04/08 10:56:59;;;;;;;0.52;0.52;;;;;;;15.54;53.97;102689.78;5091348;28;20028;-85
2023/04/08 10:59:32;;;;;;;0.28;0.28;;;;;;;15.67;54.53;102690.53;5091749;28;20016;-81
2023/04/08 11:02:31;;;;;;;0.10;0.10;;;;;;;15.83;52.92;102689.47;5091660;28;20498;-83
2023/04/08 11:05:20;;;;;;;1.23;0.52;;;;;;;15.93;52.85;102686.69;5079742;28;20043;-83
2023/04/08 11:07:50;;;;;;;0.10;0.10;;;;;;;15.92;52.34;102690.25;5090699;28;20055;-83
2023/04/08 11:10:19;;;;;;;0.30;0.30;;;;;;;16.00;52.67;102688.38;5090945;28;20038;-82
2023/04/08 11:12:50;;;;;;;0.10;0.10;;;;;;;16.04;51.57;102690.09;5091280;28;20048;-83
2023/04/08 11:15:17;;;;;;;0.10;0.10;;;;;;;16.10;51.72;102678.41;5090316;28;20401;-85
2023/04/08 11:17:59;;;;;;;0.20;0.20;;;;;;;16.29;52.63;102679.06;5090875;28;20084;-84
2023/04/08 11:20:34;;;;;;;0.93;0.93;;;;;;;16.35;50.57;102676.28;5091283;28;20032;-85
2023/04/08 11:23:03;;;;;;;0.30;0.30;;;;;;;16.45;50.30;102677.91;5092140;28;20031;-85
2023/04/08 11:25:36;;;;;;;0.20;0.20;;;;;;;16.56;50.24;102675.09;5090688;28;20568;-81
2023/04/08 11:28:03;;;;;;;0.20;0.20;;;;;;;16.66;50.26;102681.19;5089561;28;20021;-84
2023/04/08 11:30:30;;;;;;;0.35;0.35;;;;;;;16.78;50.70;102672.91;5089380;28;20169;-84
2023/04/08 11:32:56;;;;;;;0.32;0.32;;;;;;;16.84;47.40;102674.63;5089835;28;20087;-82
2023/04/08 11:35:23;;;;;;;0.45;0.45;;;;;;;16.98;49.75;102666.38;5090545;28;20073;-82
2023/04/08 11:37:51;;;;;;;0.20;0.20;;;;;;;17.10;48.52;102668.84;5091372;28;20059;-81
2023/04/08 11:40:21;;;;;;;0.20;0.20;;;;;;;17.23;47.67;102665.94;5091681;28;20020;-84
2023/04/08 11:42:47;;;;;;;0.28;0.28;;;;;;;17.27;49.68;102663.16;5091266;28;20065;-82
2023/04/08 11:45:15;;;;;;;0.45;0.43;;;;;;;17.34;47.65;102660.38;5090161;28;20028;-84
2023/04/08 11:47:42;;;;;;;0.95;0.95;;;;;;;17.42;46.69;102667.34;5089047;28;20473;-81
2023/04/08 11:50:09;;;;;;;0.10;0.10;;;;;;;17.55;46.71;102669.78;5075590;28;20024;-85
2023/04/08 11:52:52;;;;;;;0.10;0.10;;;;;;;17.71;47.31;102668.53;5067797;28;20025;-84
2023/04/08 11:55:28;;;;;;;0.30;0.30;;;;;;;17.81;47.93;102665.66;5073815;28;20020;-81
2023/04/08 11:57:56;;;;;;;1.45;0.80;;;;;;;17.83;46.71;102669.19;5075762;28;20542;-81